createdAt,value
2022-12-18T00:00:43.578Z,-5.65
2022-12-18T00:06:09.988Z,-5.64
2022-12-18T00:11:18.194Z,-5.57
2022-12-18T00:16:25.939Z,-5.53
2022-12-18T00:21:33.425Z,-5.57
2022-12-18T00:26:39.939Z,-5.60
2022-12-18T00:31:47.128Z,-5.62
2022-12-18T00:36:53.560Z,-5.60
2022-12-18T00:42:19.953Z,-5.53
2022-12-18T00:47:27.492Z,-5.49
2022-12-18T00:52:33.445Z,-5.47
2022-12-18T00:57:39.319Z,-5.48
2022-12-18T01:02:46.462Z,-5.52
2022-12-18T01:07:52.438Z,-5.50
2022-12-18T01:12:58.997Z,-5.45
2022-12-18T01:18:05.097Z,-5.44
2022-12-18T01:23:10.865Z,-5.41
2022-12-18T01:28:16.529Z,-5.42
2022-12-18T01:33:23.301Z,-5.42
2022-12-18T01:38:31.008Z,-5.36
2022-12-18T01:43:52.736Z,-5.28
2022-12-18T01:49:01.297Z,-5.21
2022-12-18T01:54:07.549Z,-5.23
2022-12-18T01:59:14.283Z,-5.27
2022-12-18T02:04:25.657Z,-5.29
2022-12-18T02:09:38.731Z,-5.28
2022-12-18T02:14:55.153Z,-5.28
2022-12-18T02:20:11.149Z,-5.33
2022-12-18T02:25:28.964Z,-5.41
2022-12-18T02:30:38.776Z,-5.44
2022-12-18T02:35:48.341Z,-5.43
2022-12-18T02:40:57.756Z,-5.42
2022-12-18T02:46:17.824Z,-5.45
2022-12-18T02:51:30.530Z,-5.45
2022-12-18T02:56:42.797Z,-5.44
2022-12-18T03:01:55.250Z,-5.52
2022-12-18T03:07:07.808Z,-5.59
2022-12-18T03:12:26.412Z,-5.65
2022-12-18T03:17:36.272Z,-5.68
2022-12-18T03:22:45.380Z,-5.73
2022-12-18T03:27:59.751Z,-5.79
2022-12-18T03:33:09.322Z,-5.83
2022-12-18T03:38:17.206Z,-5.84
2022-12-18T03:43:36.807Z,-5.81
2022-12-18T03:48:49.091Z,-5.80
2022-12-18T03:53:59.480Z,-5.81
2022-12-18T03:59:11.173Z,-5.79
2022-12-18T04:04:20.121Z,-5.81
2022-12-18T04:09:26.997Z,-5.83
2022-12-18T04:14:36.699Z,-5.91
2022-12-18T04:19:43.213Z,-5.90
2022-12-18T04:24:50.082Z,-5.87
2022-12-18T04:30:02.586Z,-5.95
2022-12-18T04:35:11.682Z,-6.05
2022-12-18T04:40:18.958Z,-6.09
2022-12-18T04:45:26.079Z,-6.13
2022-12-18T04:50:32.416Z,-6.14
2022-12-18T04:55:38.219Z,-6.12
2022-12-18T05:00:44.864Z,-6.14
2022-12-18T05:05:53.248Z,-6.19
2022-12-18T05:11:03.405Z,-6.25
2022-12-18T05:16:09.920Z,-6.29
2022-12-18T05:21:15.812Z,-6.27
2022-12-18T05:26:21.864Z,-6.27
2022-12-18T05:31:28.101Z,-6.32
2022-12-18T05:36:34.095Z,-6.37
2022-12-18T05:41:40.022Z,-6.36
2022-12-18T05:46:46.069Z,-6.30
2022-12-18T05:51:52.111Z,-6.33
2022-12-18T05:56:59.229Z,-6.48
2022-12-18T06:02:05.253Z,-6.62
2022-12-18T06:07:11.097Z,-6.68
2022-12-18T06:12:16.834Z,-6.71
2022-12-18T06:25:46.065Z,-6.58
2022-12-18T06:30:52.014Z,-6.54
2022-12-18T06:36:03.385Z,-6.52
2022-12-18T06:41:11.291Z,-6.57
2022-12-18T06:46:17.252Z,-6.55
2022-12-18T06:51:26.319Z,-6.51
2022-12-18T06:56:32.369Z,-6.53
2022-12-18T07:01:38.438Z,-6.57
2022-12-18T07:06:44.657Z,-6.51
2022-12-18T07:11:50.503Z,-6.44
2022-12-18T07:16:56.390Z,-6.37
2022-12-18T07:22:02.867Z,-6.32
2022-12-18T07:27:08.821Z,-6.27
2022-12-18T07:32:16.186Z,-6.17
2022-12-18T07:37:22.054Z,-6.05
2022-12-18T07:42:34.045Z,-6.02
2022-12-18T07:47:42.370Z,-6.07
2022-12-18T07:52:48.165Z,-6.02
2022-12-18T07:57:59.212Z,-5.90
2022-12-18T08:03:07.438Z,-5.79
2022-12-18T08:08:13.422Z,-5.66
2022-12-18T08:13:19.206Z,-5.58
2022-12-18T08:18:25.165Z,-5.55
2022-12-18T08:23:31.117Z,-5.47
2022-12-18T08:28:37.124Z,-5.43
2022-12-18T08:33:43.594Z,-5.35
2022-12-18T08:38:50.809Z,-5.21
2022-12-18T08:44:15.890Z,-5.07
2022-12-18T08:49:21.709Z,-5.04
2022-12-18T08:54:27.950Z,-5.03
2022-12-18T08:59:33.877Z,-5.06
2022-12-18T09:04:41.048Z,-4.94
2022-12-18T09:09:51.622Z,-4.72
2022-12-18T09:14:57.697Z,-4.51
2022-12-18T09:20:04.409Z,-4.30
2022-12-18T09:25:10.938Z,-4.09
2022-12-18T09:30:17.362Z,-4.01
2022-12-18T09:35:23.509Z,-4.01
2022-12-18T09:40:35.343Z,-3.99
2022-12-18T09:45:48.698Z,-3.82
2022-12-18T09:50:59.512Z,-3.60
2022-12-18T09:56:08.186Z,-3.41
2022-12-18T10:01:15.420Z,-3.35
2022-12-18T10:06:28.502Z,-3.40
2022-12-18T10:11:48.010Z,-3.35
2022-12-18T10:17:07.444Z,-3.29
2022-12-18T10:22:24.986Z,-3.23
2022-12-18T10:27:33.090Z,-3.03
2022-12-18T10:32:39.560Z,-3.00
2022-12-18T10:38:02.945Z,-2.99
2022-12-18T10:43:15.560Z,-2.86
2022-12-18T10:48:25.206Z,-2.72
2022-12-18T10:53:34.216Z,-2.78
2022-12-18T10:58:41.699Z,-2.84
2022-12-18T11:04:02.605Z,-2.85
2022-12-18T11:09:19.952Z,-2.90
2022-12-18T11:14:29.024Z,-2.89
2022-12-18T11:19:38.046Z,-2.82
2022-12-18T11:24:53.118Z,-2.86
2022-12-18T11:30:21.693Z,-2.94
2022-12-18T11:35:39.414Z,-2.94
2022-12-18T11:40:51.698Z,-2.95
2022-12-18T11:46:06.637Z,-2.97
2022-12-18T11:51:18.321Z,-2.92
2022-12-18T11:56:36.592Z,-2.88
2022-12-18T12:01:51.997Z,-2.85
2022-12-18T12:07:09.012Z,-2.76
2022-12-18T12:12:48.979Z,-2.80
2022-12-18T12:18:06.846Z,-2.84
2022-12-18T12:23:28.074Z,-2.91
2022-12-18T12:28:54.738Z,-2.87
2022-12-18T12:34:11.095Z,-2.82
2022-12-18T12:39:21.482Z,-2.86
2022-12-18T12:44:31.708Z,-2.89
2022-12-18T12:55:11.545Z,-3.01
2022-12-18T13:00:23.068Z,-3.07
2022-12-18T13:05:34.664Z,-3.08
2022-12-18T13:10:42.260Z,-3.12
2022-12-18T13:15:51.460Z,-3.17
2022-12-18T13:21:16.456Z,-3.24
2022-12-18T13:26:34.308Z,-3.32
2022-12-18T13:32:23.238Z,-3.38
2022-12-18T13:37:54.089Z,-3.47
2022-12-18T13:43:15.806Z,-3.48
2022-12-18T13:48:25.512Z,-3.47
2022-12-18T13:53:36.769Z,-3.49
2022-12-18T13:58:43.459Z,-3.56
2022-12-18T14:03:49.945Z,-3.63
2022-12-18T14:08:58.013Z,-3.69
2022-12-18T14:14:05.475Z,-3.77
2022-12-18T14:19:16.061Z,-3.80
2022-12-18T14:24:23.151Z,-3.81
2022-12-18T14:29:30.710Z,-3.84
2022-12-18T14:34:36.645Z,-3.92
2022-12-18T14:39:53.666Z,-4.05
2022-12-18T14:45:49.190Z,-4.17
2022-12-18T14:51:01.878Z,-4.21
2022-12-18T14:56:17.158Z,-4.25
2022-12-18T15:01:27.587Z,-4.30
2022-12-18T15:06:37.396Z,-4.37
2022-12-18T15:11:49.625Z,-4.44
2022-12-18T15:16:57.480Z,-4.48
2022-12-18T15:22:06.597Z,-4.46
2022-12-18T15:27:25.294Z,-4.40
2022-12-18T15:32:31.247Z,-4.39
2022-12-18T15:37:42.100Z,-4.43
2022-12-18T15:43:08.585Z,-4.48
2022-12-18T15:48:22.128Z,-4.53
2022-12-18T15:53:31.292Z,-4.51
2022-12-18T15:58:37.241Z,-4.45
2022-12-18T16:03:43.506Z,-4.42
2022-12-18T16:08:50.102Z,-4.43
2022-12-18T16:13:56.078Z,-4.42
2022-12-18T16:19:01.818Z,-4.44
2022-12-18T16:24:15.950Z,-4.42
2022-12-18T16:29:28.459Z,-4.39
2022-12-18T16:34:36.255Z,-4.37
2022-12-18T16:39:43.268Z,-4.38
2022-12-18T16:44:50.298Z,-4.42
2022-12-18T16:49:57.359Z,-4.49
2022-12-18T16:55:03.149Z,-4.57
2022-12-18T17:00:11.289Z,-4.53
2022-12-18T17:05:17.399Z,-4.49
2022-12-18T17:10:23.314Z,-4.53
2022-12-18T17:15:29.078Z,-4.58
2022-12-18T17:20:34.828Z,-4.64
2022-12-18T17:25:42.550Z,-4.69
2022-12-18T17:30:48.430Z,-4.68
2022-12-18T17:35:54.473Z,-4.69
2022-12-18T17:41:03.620Z,-4.70
2022-12-18T17:46:09.542Z,-4.74
2022-12-18T17:51:16.454Z,-4.79
2022-12-18T17:56:25.225Z,-4.83
2022-12-18T18:01:31.216Z,-4.85
2022-12-18T18:06:39.156Z,-4.90
2022-12-18T18:12:04.633Z,-4.97
2022-12-18T18:17:10.745Z,-5.03
2022-12-18T18:22:20.281Z,-5.08
2022-12-18T18:27:26.301Z,-5.05
2022-12-18T18:32:32.832Z,-5.04
2022-12-18T18:37:38.999Z,-5.09
2022-12-18T18:42:46.851Z,-5.13
2022-12-18T18:47:52.665Z,-5.20
2022-12-18T18:52:58.400Z,-5.20
2022-12-18T18:58:04.163Z,-5.19
2022-12-18T19:03:12.505Z,-5.20
2022-12-18T19:08:18.906Z,-5.26
2022-12-18T19:13:27.126Z,-5.29
2022-12-18T19:18:33.771Z,-5.34
2022-12-18T19:23:39.585Z,-5.39
2022-12-18T19:28:45.846Z,-5.41
2022-12-18T19:33:52.645Z,-5.46
2022-12-18T19:39:00.916Z,-5.45
2022-12-18T19:44:08.819Z,-5.45
2022-12-18T19:49:17.554Z,-5.51
2022-12-18T19:54:24.132Z,-5.58
2022-12-18T19:59:32.153Z,-5.62
2022-12-18T20:04:37.864Z,-5.63
2022-12-18T20:09:43.624Z,-5.68
2022-12-18T20:14:50.294Z,-5.70
2022-12-18T20:19:56.625Z,-5.72
2022-12-18T20:25:03.225Z,-5.75
2022-12-18T20:30:11.941Z,-5.73
2022-12-18T20:35:18.281Z,-5.78
2022-12-18T20:40:25.926Z,-5.85
2022-12-18T20:45:31.827Z,-5.89
2022-12-18T20:50:37.758Z,-5.93
2022-12-18T20:55:46.432Z,-5.96
2022-12-18T21:01:02.107Z,-5.93
2022-12-18T21:06:09.068Z,-5.86
2022-12-18T21:11:36.383Z,-5.88
2022-12-18T21:16:43.952Z,-5.88
2022-12-18T21:21:52.027Z,-5.79
2022-12-18T21:27:01.876Z,-5.75
2022-12-18T21:32:09.280Z,-5.77
2022-12-18T21:37:15.060Z,-5.79
2022-12-18T21:42:39.860Z,-5.81
2022-12-18T21:47:45.750Z,-5.78
2022-12-18T21:52:51.561Z,-5.81
2022-12-18T21:57:57.629Z,-5.88
2022-12-18T22:03:17.685Z,-5.87
2022-12-18T22:08:25.459Z,-5.89
2022-12-18T22:13:31.394Z,-5.96
2022-12-18T22:18:37.159Z,-6.02
2022-12-18T22:23:43.069Z,-6.02
2022-12-18T22:29:07.990Z,-6.01
2022-12-18T22:34:13.904Z,-6.04
2022-12-18T22:39:21.918Z,-6.07
2022-12-18T22:44:27.855Z,-6.11
2022-12-18T22:49:34.908Z,-6.15
2022-12-18T22:54:41.427Z,-6.24
2022-12-18T22:59:47.600Z,-6.31
2022-12-18T23:04:53.406Z,-6.33
2022-12-18T23:10:00.744Z,-6.30
2022-12-18T23:15:07.858Z,-6.27
2022-12-18T23:20:14.063Z,-6.28
2022-12-18T23:25:19.872Z,-6.28
2022-12-18T23:30:26.213Z,-6.27
2022-12-18T23:35:32.404Z,-6.29
2022-12-18T23:40:38.144Z,-6.34
2022-12-18T23:45:45.411Z,-6.36
2022-12-18T23:50:51.185Z,-6.34
2022-12-18T23:55:56.959Z,-6.40
